createdAt,value
2017-12-11T00:01:00.274Z,2.90
2017-12-11T00:03:27.839Z,3.00
2017-12-11T00:05:55.387Z,3.00
2017-12-11T00:08:22.927Z,3.00
2017-12-11T00:10:51.315Z,3.20
2017-12-11T00:13:18.851Z,3.20
2017-12-11T00:15:47.285Z,3.20
2017-12-11T00:18:14.862Z,3.20
2017-12-11T00:20:42.416Z,3.20
2017-12-11T00:23:09.996Z,3.40
2017-12-11T00:25:37.539Z,3.60
2017-12-11T00:28:05.129Z,3.80
2017-12-11T00:30:32.727Z,3.90
2017-12-11T00:33:01.037Z,4.10
2017-12-11T00:35:28.576Z,4.10
2017-12-11T00:37:56.909Z,4.20
2017-12-11T00:40:24.461Z,4.20
2017-12-11T00:42:52.056Z,4.30
2017-12-11T00:45:19.630Z,4.30
2017-12-11T00:47:47.209Z,4.30
2017-12-11T00:50:14.800Z,4.30
2017-12-11T00:52:43.127Z,4.30
2017-12-11T00:55:10.688Z,4.30
2017-12-11T00:57:38.241Z,4.20
2017-12-11T01:00:05.816Z,4.10
2017-12-11T01:02:33.365Z,4.00
2017-12-11T01:05:00.944Z,3.80
2017-12-11T01:07:28.518Z,3.80
2017-12-11T01:09:56.116Z,3.70
2017-12-11T01:12:24.466Z,3.60
2017-12-11T01:14:52.030Z,3.60
2017-12-11T01:17:19.605Z,3.70
2017-12-11T01:19:47.161Z,3.70
2017-12-11T01:22:14.703Z,3.70
2017-12-11T01:24:42.251Z,3.70
2017-12-11T01:27:09.789Z,3.80
2017-12-11T01:29:38.134Z,3.90
2017-12-11T01:32:05.699Z,3.90
2017-12-11T01:34:33.264Z,4.00
2017-12-11T01:37:00.819Z,3.90
2017-12-11T01:39:28.385Z,4.00
2017-12-11T01:41:55.950Z,4.00
2017-12-11T01:44:23.520Z,4.10
2017-12-11T01:46:51.074Z,4.10
2017-12-11T01:49:18.679Z,4.10
2017-12-11T01:51:46.207Z,4.20
2017-12-11T01:54:13.781Z,4.10
2017-12-11T01:56:41.325Z,4.20
2017-12-11T01:59:08.893Z,4.10
2017-12-11T02:01:36.447Z,4.10
2017-12-11T02:04:04.995Z,4.10
2017-12-11T02:06:33.298Z,4.10
2017-12-11T02:09:01.610Z,4.10
2017-12-11T02:11:29.169Z,4.10
2017-12-11T02:13:56.740Z,4.00
2017-12-11T02:16:24.305Z,4.00
2017-12-11T02:18:51.850Z,4.00
2017-12-11T02:21:19.419Z,4.00
2017-12-11T02:23:47.015Z,3.90
2017-12-11T02:26:14.578Z,3.90
2017-12-11T02:28:42.137Z,3.90
2017-12-11T02:31:09.699Z,3.90
2017-12-11T02:33:37.276Z,3.90
2017-12-11T02:36:04.828Z,3.80
2017-12-11T02:38:32.370Z,3.70
2017-12-11T02:40:59.944Z,3.80
2017-12-11T02:43:29.277Z,3.80
2017-12-11T02:45:57.303Z,3.80
2017-12-11T02:48:24.915Z,3.70
2017-12-11T02:50:52.506Z,3.70
2017-12-11T02:53:20.103Z,3.70
2017-12-11T02:55:47.663Z,3.60
2017-12-11T02:58:16.249Z,3.60
2017-12-11T03:00:43.823Z,3.70
2017-12-11T03:03:11.376Z,3.60
2017-12-11T03:05:39.706Z,3.70
2017-12-11T03:08:07.254Z,3.70
2017-12-11T03:10:34.792Z,3.70
2017-12-11T03:13:02.321Z,3.60
2017-12-11T03:15:29.902Z,3.60
2017-12-11T03:17:58.226Z,3.60
2017-12-11T03:20:25.798Z,3.60
2017-12-11T03:22:54.346Z,3.60
2017-12-11T03:25:22.635Z,3.60
2017-12-11T03:27:50.161Z,3.60
2017-12-11T03:30:17.723Z,3.70
2017-12-11T03:32:45.279Z,3.70
2017-12-11T03:35:12.826Z,3.70
2017-12-11T03:37:40.398Z,3.70
2017-12-11T03:40:07.945Z,3.70
2017-12-11T03:42:35.481Z,3.70
2017-12-11T03:45:03.148Z,3.70
2017-12-11T03:47:30.691Z,3.70
2017-12-11T03:49:58.997Z,3.60
2017-12-11T03:52:26.564Z,3.60
2017-12-11T03:54:54.101Z,3.60
2017-12-11T03:57:21.635Z,3.60
2017-12-11T03:59:49.195Z,3.50
2017-12-11T04:02:16.757Z,3.40
2017-12-11T04:04:44.305Z,3.50
2017-12-11T04:07:11.872Z,3.30
2017-12-11T04:09:39.407Z,3.30
2017-12-11T04:12:06.942Z,3.30
2017-12-11T04:14:35.490Z,3.30
2017-12-11T04:17:03.027Z,3.30
2017-12-11T04:19:30.579Z,3.40
2017-12-11T04:21:58.136Z,3.50
2017-12-11T04:24:25.714Z,3.30
2017-12-11T04:26:54.033Z,3.30
2017-12-11T04:29:21.571Z,3.30
2017-12-11T04:31:49.122Z,3.40
2017-12-11T04:34:17.435Z,3.40
2017-12-11T04:36:45.062Z,3.40
2017-12-11T04:39:13.383Z,3.50
2017-12-11T04:41:40.939Z,3.40
2017-12-11T04:44:08.518Z,3.50
2017-12-11T04:46:36.071Z,3.40
2017-12-11T04:49:03.633Z,3.50
2017-12-11T04:51:31.173Z,3.60
2017-12-11T04:53:59.509Z,3.40
2017-12-11T04:56:27.075Z,3.40
2017-12-11T04:58:54.619Z,3.40
2017-12-11T05:01:22.171Z,3.40
2017-12-11T05:03:49.711Z,3.50
2017-12-11T05:06:18.024Z,3.50
2017-12-11T05:08:46.576Z,3.50
2017-12-11T05:11:14.894Z,3.60
2017-12-11T05:13:42.446Z,3.60
2017-12-11T05:16:10.062Z,3.70
2017-12-11T05:18:37.601Z,3.60
2017-12-11T05:21:05.194Z,3.50
2017-12-11T05:23:32.734Z,3.50
2017-12-11T05:26:00.268Z,3.50
2017-12-11T05:28:27.851Z,3.40
2017-12-11T05:30:55.381Z,3.30
2017-12-11T05:33:23.681Z,3.30
2017-12-11T05:35:51.270Z,3.20
2017-12-11T05:38:18.829Z,3.30
2017-12-11T05:40:46.375Z,3.40
2017-12-11T05:43:13.960Z,3.30
2017-12-11T05:45:41.522Z,3.30
2017-12-11T05:48:10.089Z,3.50
2017-12-11T05:50:37.620Z,3.50
2017-12-11T05:53:05.184Z,3.50
2017-12-11T05:55:32.757Z,3.50
2017-12-11T05:58:00.323Z,3.50
2017-12-11T06:00:28.675Z,3.60
2017-12-11T06:02:56.221Z,3.60
2017-12-11T06:05:24.543Z,3.50
2017-12-11T06:07:52.135Z,3.50
2017-12-11T06:10:19.694Z,3.50
2017-12-11T06:12:48.031Z,3.50
2017-12-11T06:15:15.570Z,3.50
2017-12-11T06:17:43.118Z,3.50
2017-12-11T06:20:11.669Z,3.60
2017-12-11T06:22:39.272Z,3.60
2017-12-11T06:25:06.816Z,3.60
2017-12-11T06:27:35.131Z,3.60
2017-12-11T06:30:02.701Z,3.60
2017-12-11T06:32:30.256Z,3.60
2017-12-11T06:34:57.807Z,3.60
2017-12-11T06:37:25.397Z,3.70
2017-12-11T06:39:52.942Z,3.70
2017-12-11T06:42:20.515Z,3.70
2017-12-11T06:44:48.104Z,3.70
2017-12-11T06:47:15.653Z,3.70
2017-12-11T06:49:43.208Z,3.70
2017-12-11T06:52:10.755Z,3.60
2017-12-11T06:54:39.066Z,3.70
2017-12-11T06:57:06.599Z,3.70
2017-12-11T06:59:34.923Z,3.60
2017-12-11T07:02:02.460Z,3.60
2017-12-11T07:04:29.982Z,3.70
2017-12-11T07:06:57.571Z,3.80
2017-12-11T07:09:25.111Z,3.70
2017-12-11T07:11:52.648Z,3.60
2017-12-11T07:14:20.198Z,3.60
2017-12-11T07:16:47.746Z,3.70
2017-12-11T07:19:15.318Z,3.80
2017-12-11T07:21:42.867Z,3.80
2017-12-11T07:24:10.424Z,3.90
2017-12-11T07:26:37.961Z,3.80
2017-12-11T07:29:05.515Z,3.70
2017-12-11T07:31:33.087Z,3.70
2017-12-11T07:34:00.631Z,3.80
2017-12-11T07:36:29.200Z,3.80
2017-12-11T07:38:56.914Z,3.80
2017-12-11T07:41:25.224Z,3.90
2017-12-11T07:43:52.789Z,3.90
2017-12-11T07:46:20.350Z,3.90
2017-12-11T07:48:47.988Z,3.90
2017-12-11T07:51:16.344Z,3.90
2017-12-11T07:53:43.910Z,3.90
2017-12-11T07:56:11.676Z,3.90
2017-12-11T07:58:39.223Z,3.90
2017-12-11T08:01:06.743Z,4.00
2017-12-11T08:03:35.042Z,4.00
2017-12-11T08:06:02.608Z,4.00
2017-12-11T08:08:30.920Z,4.10
2017-12-11T08:10:58.477Z,4.10
2017-12-11T08:13:26.052Z,4.10
2017-12-11T08:15:53.581Z,4.10
2017-12-11T08:18:21.892Z,4.30
2017-12-11T08:20:50.220Z,4.50
2017-12-11T08:23:17.770Z,4.40
2017-12-11T08:25:45.321Z,4.50
2017-12-11T08:28:12.891Z,4.60
2017-12-11T08:30:40.575Z,4.50
2017-12-11T08:33:08.143Z,4.50
2017-12-11T08:35:35.686Z,4.50
2017-12-11T08:38:03.229Z,4.60
2017-12-11T08:40:30.882Z,4.60
2017-12-11T08:42:58.430Z,4.60
2017-12-11T08:45:26.744Z,4.90
2017-12-11T08:47:55.298Z,4.90
2017-12-11T08:50:22.832Z,5.00
2017-12-11T08:52:50.372Z,5.00
2017-12-11T08:55:19.585Z,5.00
2017-12-11T08:57:47.150Z,5.00
2017-12-11T09:00:14.697Z,4.90
2017-12-11T09:02:42.273Z,5.00
2017-12-11T09:05:09.802Z,5.10
2017-12-11T09:07:37.356Z,5.20
2017-12-11T09:10:05.524Z,5.20
2017-12-11T09:12:33.857Z,5.10
2017-12-11T09:15:01.398Z,5.10
2017-12-11T09:17:29.738Z,5.20
2017-12-11T09:19:58.053Z,5.20
2017-12-11T09:22:25.613Z,5.20
2017-12-11T09:24:53.195Z,5.30
2017-12-11T09:27:20.773Z,5.30
2017-12-11T09:29:48.324Z,5.40
2017-12-11T09:32:15.902Z,5.30
2017-12-11T09:34:43.462Z,5.30
2017-12-11T09:37:11.000Z,5.30
2017-12-11T09:39:38.574Z,5.10
2017-12-11T09:42:06.904Z,5.20
2017-12-11T09:44:34.436Z,5.20
2017-12-11T09:47:01.987Z,5.30
2017-12-11T09:49:29.554Z,5.30
2017-12-11T09:51:57.110Z,5.20
2017-12-11T09:54:24.701Z,5.20
2017-12-11T09:56:52.241Z,5.10
2017-12-11T09:59:19.797Z,5.10
2017-12-11T10:01:47.481Z,5.20
2017-12-11T10:04:15.034Z,5.10
2017-12-11T10:06:42.584Z,5.00
2017-12-11T10:09:10.950Z,5.20
2017-12-11T10:11:39.304Z,5.20
2017-12-11T10:14:06.867Z,5.10
2017-12-11T10:16:34.448Z,5.20
2017-12-11T10:19:02.053Z,5.20
2017-12-11T10:21:29.606Z,5.10
2017-12-11T10:23:57.943Z,5.10
2017-12-11T10:26:25.489Z,5.10
2017-12-11T10:28:53.038Z,5.30
2017-12-11T10:31:20.585Z,5.30
2017-12-11T10:33:48.156Z,5.30
2017-12-11T10:36:15.727Z,5.20
2017-12-11T10:38:43.249Z,5.30
2017-12-11T10:41:11.803Z,5.30
2017-12-11T10:43:39.352Z,5.40
2017-12-11T10:46:06.902Z,5.30
2017-12-11T10:48:34.474Z,5.20
2017-12-11T10:51:02.109Z,5.10
2017-12-11T10:53:30.422Z,5.20
2017-12-11T10:55:57.981Z,5.20
2017-12-11T10:58:25.542Z,5.20
2017-12-11T11:00:53.127Z,5.20
2017-12-11T11:03:20.706Z,5.30
2017-12-11T11:05:48.245Z,5.40
2017-12-11T11:08:15.793Z,5.40
2017-12-11T11:10:43.369Z,5.30
2017-12-11T11:13:10.930Z,5.30
2017-12-11T11:15:38.502Z,5.20
2017-12-11T11:18:06.061Z,5.20
2017-12-11T11:20:33.624Z,5.10
2017-12-11T11:23:01.179Z,5.00
2017-12-11T11:25:28.741Z,5.00
2017-12-11T11:27:57.354Z,4.90
2017-12-11T11:30:24.913Z,4.80
2017-12-11T11:32:52.489Z,4.80
2017-12-11T11:35:20.024Z,4.90
2017-12-11T11:37:47.577Z,4.90
2017-12-11T11:40:15.913Z,4.80
2017-12-11T11:42:43.474Z,4.90
2017-12-11T11:45:11.013Z,4.80
2017-12-11T11:47:38.578Z,4.70
2017-12-11T11:50:06.975Z,4.70
2017-12-11T11:52:34.525Z,4.70
2017-12-11T11:55:02.100Z,4.70
2017-12-11T11:57:29.657Z,4.70
2017-12-11T11:59:57.240Z,4.60
2017-12-11T12:02:24.827Z,4.70
2017-12-11T12:04:52.372Z,4.50
2017-12-11T12:07:19.914Z,4.30
2017-12-11T12:09:47.481Z,4.30
2017-12-11T12:12:15.034Z,4.30
2017-12-11T12:14:42.593Z,4.50
2017-12-11T12:17:10.956Z,4.60
2017-12-11T12:19:38.517Z,4.50
2017-12-11T12:22:06.071Z,4.60
2017-12-11T12:24:33.632Z,4.60
2017-12-11T12:27:01.224Z,4.70
2017-12-11T12:29:29.576Z,4.80
2017-12-11T12:31:57.140Z,4.80
2017-12-11T12:34:24.682Z,4.90
2017-12-11T12:36:53.028Z,4.90
2017-12-11T12:39:21.348Z,5.00
2017-12-11T12:41:48.898Z,5.00
2017-12-11T12:44:16.505Z,5.10
2017-12-11T12:46:44.067Z,5.20
2017-12-11T12:49:11.631Z,5.30
2017-12-11T12:51:39.223Z,5.20
2017-12-11T12:54:06.770Z,5.10
2017-12-11T12:56:34.337Z,5.20
2017-12-11T12:59:01.932Z,5.20
2017-12-11T13:01:29.481Z,5.00
2017-12-11T13:03:57.011Z,4.80
2017-12-11T13:06:24.588Z,4.90
2017-12-11T13:08:52.174Z,4.90
2017-12-11T13:11:19.711Z,5.10
2017-12-11T13:13:48.303Z,5.20
2017-12-11T13:16:15.860Z,5.20
2017-12-11T13:18:43.440Z,5.30
2017-12-11T13:21:11.092Z,5.30
2017-12-11T13:23:38.660Z,5.40
2017-12-11T13:26:06.218Z,5.50
2017-12-11T13:28:33.817Z,5.60
2017-12-11T13:31:02.150Z,6.00
2017-12-11T13:33:29.765Z,5.90
2017-12-11T13:35:57.339Z,5.90
2017-12-11T13:38:25.648Z,5.80
2017-12-11T13:40:53.200Z,5.80
2017-12-11T13:43:20.786Z,5.80
2017-12-11T13:45:48.338Z,5.90
2017-12-11T13:48:15.864Z,5.80
2017-12-11T13:50:44.414Z,5.80
2017-12-11T13:53:11.974Z,5.80
2017-12-11T13:55:39.542Z,5.90
2017-12-11T13:58:07.116Z,5.90
2017-12-11T14:00:34.666Z,6.00
2017-12-11T14:03:02.208Z,6.10
2017-12-11T14:05:29.798Z,6.10
2017-12-11T14:07:57.418Z,6.00
2017-12-11T14:10:25.746Z,6.10
2017-12-11T14:12:53.324Z,6.10
2017-12-11T14:15:20.861Z,6.20
2017-12-11T14:17:48.419Z,6.30
2017-12-11T14:20:15.999Z,6.20
2017-12-11T14:22:43.568Z,6.20
2017-12-11T14:25:12.062Z,6.10
2017-12-11T14:27:39.703Z,6.00
2017-12-11T14:30:07.419Z,5.90
2017-12-11T14:32:35.197Z,5.90
2017-12-11T14:35:02.839Z,5.90
2017-12-11T14:37:30.545Z,6.00
2017-12-11T14:39:58.932Z,5.90
2017-12-11T14:42:26.562Z,5.90
2017-12-11T14:44:54.208Z,5.90
2017-12-11T14:47:22.626Z,5.90
2017-12-11T14:49:50.765Z,5.90
2017-12-11T14:52:18.370Z,5.90
2017-12-11T14:54:45.969Z,5.90
2017-12-11T14:57:14.642Z,5.80
2017-12-11T14:59:43.049Z,5.60
2017-12-11T15:02:10.629Z,5.60
2017-12-11T15:04:38.991Z,5.40
2017-12-11T15:07:06.557Z,5.40
2017-12-11T15:09:34.164Z,5.20
2017-12-11T15:12:01.768Z,5.00
2017-12-11T15:14:29.420Z,4.90
2017-12-11T15:16:57.548Z,4.80
2017-12-11T15:19:25.267Z,4.90
2017-12-11T15:21:52.900Z,4.80
2017-12-11T15:24:20.454Z,4.80
2017-12-11T15:26:47.992Z,4.80
2017-12-11T15:29:16.331Z,4.80
2017-12-11T15:31:43.902Z,4.80
2017-12-11T15:34:11.473Z,5.30
2017-12-11T15:36:39.060Z,6.40
2017-12-11T15:39:08.527Z,7.80
2017-12-11T15:41:36.142Z,7.80
2017-12-11T15:44:03.767Z,8.10
2017-12-11T15:46:31.347Z,8.20
2017-12-11T15:48:58.963Z,8.30
2017-12-11T15:51:26.551Z,8.20
2017-12-11T15:53:54.143Z,8.00
2017-12-11T15:56:21.706Z,7.80
2017-12-11T15:58:49.285Z,7.70
2017-12-11T16:01:16.833Z,7.50
2017-12-11T16:03:44.393Z,7.30
2017-12-11T16:06:12.724Z,7.20
2017-12-11T16:08:40.283Z,7.20
2017-12-11T16:11:07.881Z,7.20
2017-12-11T16:13:35.469Z,7.20
2017-12-11T16:16:03.075Z,7.10
2017-12-11T16:18:30.799Z,6.90
2017-12-11T16:20:58.392Z,6.80
2017-12-11T16:23:26.709Z,6.70
2017-12-11T16:25:54.287Z,6.70
2017-12-11T16:28:21.868Z,6.60
2017-12-11T16:30:49.471Z,6.60
2017-12-11T16:33:17.863Z,6.40
2017-12-11T16:35:45.447Z,6.40
2017-12-11T16:38:13.002Z,6.30
2017-12-11T16:40:41.422Z,6.10
2017-12-11T16:43:08.980Z,6.10
2017-12-11T16:45:36.563Z,6.00
2017-12-11T16:48:04.151Z,5.90
2017-12-11T16:50:31.696Z,5.90
2017-12-11T16:52:59.279Z,5.80
2017-12-11T16:55:26.829Z,5.80
2017-12-11T16:57:54.416Z,5.70
2017-12-11T17:00:22.785Z,5.60
2017-12-11T17:02:50.356Z,5.60
2017-12-11T17:05:17.931Z,5.60
2017-12-11T17:07:46.260Z,5.50
2017-12-11T17:10:14.304Z,5.50
2017-12-11T17:12:41.981Z,5.50
2017-12-11T17:15:09.684Z,5.50
2017-12-11T17:17:37.339Z,5.50
2017-12-11T17:20:04.902Z,5.40
2017-12-11T17:22:32.480Z,5.30
2017-12-11T17:25:00.284Z,5.30
2017-12-11T17:27:27.875Z,5.30
2017-12-11T17:29:55.448Z,5.20
2017-12-11T17:32:23.061Z,5.10
2017-12-11T17:34:50.685Z,5.00
2017-12-11T17:37:18.450Z,4.90
2017-12-11T17:39:46.069Z,5.00
2017-12-11T17:42:13.627Z,5.00
2017-12-11T17:44:41.234Z,5.00
2017-12-11T17:47:09.668Z,5.10
2017-12-11T17:49:37.270Z,5.10
2017-12-11T17:52:04.849Z,5.10
2017-12-11T17:54:32.433Z,5.10
2017-12-11T17:57:00.027Z,5.20
2017-12-11T17:59:27.697Z,5.20
2017-12-11T18:01:55.272Z,5.20
2017-12-11T18:04:22.832Z,5.30
2017-12-11T18:06:50.418Z,5.20
2017-12-11T18:09:21.026Z,5.30
2017-12-11T18:11:48.615Z,5.30
2017-12-11T18:14:16.292Z,5.30
2017-12-11T18:16:44.069Z,5.30
2017-12-11T18:19:12.379Z,5.40
2017-12-11T18:21:40.118Z,5.40
2017-12-11T18:24:07.775Z,5.40
2017-12-11T18:26:36.171Z,5.50
2017-12-11T18:29:03.730Z,5.50
2017-12-11T18:31:32.098Z,5.40
2017-12-11T18:33:59.706Z,5.40
2017-12-11T18:36:27.294Z,5.40
2017-12-11T18:38:54.899Z,5.40
2017-12-11T18:41:22.523Z,5.40
2017-12-11T18:43:50.168Z,5.40
2017-12-11T18:46:18.012Z,5.40
2017-12-11T18:48:46.645Z,5.50
2017-12-11T18:51:14.316Z,5.50
2017-12-11T18:53:41.984Z,5.50
2017-12-11T18:56:09.653Z,5.50
2017-12-11T18:58:37.259Z,5.40
2017-12-11T19:01:04.953Z,5.50
2017-12-11T19:03:32.827Z,5.40
2017-12-11T19:06:00.516Z,5.30
2017-12-11T19:08:28.161Z,5.40
2017-12-11T19:10:55.785Z,5.30
2017-12-11T19:13:23.624Z,5.30
2017-12-11T19:15:51.256Z,5.30
2017-12-11T19:18:18.962Z,5.30
2017-12-11T19:20:46.634Z,5.30
2017-12-11T19:23:14.320Z,5.30
2017-12-11T19:25:41.966Z,5.30
2017-12-11T19:28:09.608Z,5.30
2017-12-11T19:30:37.175Z,5.30
2017-12-11T19:33:04.773Z,5.20
2017-12-11T19:35:32.369Z,5.20
2017-12-11T19:37:59.964Z,5.20
2017-12-11T19:40:27.552Z,5.20
2017-12-11T19:42:55.179Z,5.20
2017-12-11T19:45:23.816Z,5.20
2017-12-11T19:47:51.456Z,5.10
2017-12-11T19:50:19.133Z,5.00
2017-12-11T19:52:46.757Z,5.00
2017-12-11T19:55:15.110Z,4.90
2017-12-11T19:57:42.702Z,4.80
2017-12-11T20:00:10.283Z,4.70
2017-12-11T20:02:37.860Z,4.70
2017-12-11T20:05:08.069Z,4.50
2017-12-11T20:07:37.208Z,4.50
2017-12-11T20:10:04.905Z,4.40
2017-12-11T20:12:32.457Z,4.30
2017-12-11T20:15:00.049Z,4.30
2017-12-11T20:17:27.698Z,4.10
2017-12-11T20:19:55.483Z,4.10
2017-12-11T20:22:23.097Z,4.00
2017-12-11T20:24:50.804Z,3.90
2017-12-11T20:27:19.373Z,3.80
2017-12-11T20:29:46.943Z,3.70
2017-12-11T20:32:14.712Z,3.60
2017-12-11T20:34:43.140Z,3.40
2017-12-11T20:37:11.491Z,3.30
2017-12-11T20:39:39.088Z,3.30
2017-12-11T20:42:07.590Z,3.20
2017-12-11T20:44:35.399Z,3.20
2017-12-11T20:47:03.080Z,3.20
2017-12-11T20:49:30.620Z,3.10
2017-12-11T20:51:58.245Z,3.10
2017-12-11T20:54:27.825Z,3.00
2017-12-11T20:56:56.962Z,3.00
2017-12-11T20:59:24.682Z,3.00
2017-12-11T21:01:52.496Z,3.00
2017-12-11T21:04:20.077Z,3.00
2017-12-11T21:06:48.606Z,2.90
2017-12-11T21:09:16.421Z,2.90
2017-12-11T21:11:45.008Z,2.80
2017-12-11T21:14:12.669Z,2.80
2017-12-11T21:16:41.061Z,2.60
2017-12-11T21:19:09.395Z,2.60
2017-12-11T21:21:36.957Z,2.60
2017-12-11T21:24:04.526Z,2.50
2017-12-11T21:26:32.099Z,2.50
2017-12-11T21:28:59.841Z,2.40
2017-12-11T21:31:27.662Z,2.40
2017-12-11T21:33:55.576Z,2.40
2017-12-11T21:36:23.284Z,2.30
2017-12-11T21:38:51.094Z,2.30
2017-12-11T21:41:18.906Z,2.30
2017-12-11T21:43:46.482Z,2.30
2017-12-11T21:46:14.295Z,2.30
2017-12-11T21:48:42.116Z,2.40
2017-12-11T21:51:09.913Z,2.40
2017-12-11T21:53:38.447Z,2.50
2017-12-11T21:56:06.339Z,2.40
2017-12-11T21:58:35.146Z,2.40
2017-12-11T22:01:02.889Z,2.30
2017-12-11T22:03:30.557Z,2.30
2017-12-11T22:05:58.123Z,2.30
2017-12-11T22:08:25.843Z,2.30
2017-12-11T22:10:54.285Z,2.30
2017-12-11T22:13:21.963Z,2.30
2017-12-11T22:15:49.585Z,2.30
2017-12-11T22:18:17.448Z,2.30
2017-12-11T22:20:46.078Z,2.20
2017-12-11T22:23:13.994Z,2.20
2017-12-11T22:25:42.867Z,2.20
2017-12-11T22:28:12.202Z,2.20
2017-12-11T22:30:40.141Z,2.20
2017-12-11T22:33:07.972Z,2.10
2017-12-11T22:35:36.076Z,2.10
2017-12-11T22:38:03.679Z,2.10
2017-12-11T22:40:32.048Z,2.10
2017-12-11T22:42:59.638Z,2.10
2017-12-11T22:45:27.189Z,2.10
2017-12-11T22:47:54.767Z,2.10
2017-12-11T22:50:22.331Z,2.10
2017-12-11T22:52:50.659Z,2.10
2017-12-11T22:55:18.243Z,2.10
2017-12-11T22:57:45.961Z,2.20
2017-12-11T23:00:13.881Z,2.20
2017-12-11T23:02:41.702Z,2.30
2017-12-11T23:05:10.277Z,2.20
2017-12-11T23:07:38.075Z,2.20
2017-12-11T23:10:05.863Z,2.20
2017-12-11T23:12:33.643Z,2.20
2017-12-11T23:15:01.809Z,2.30
2017-12-11T23:17:29.524Z,2.30
2017-12-11T23:19:57.322Z,2.30
2017-12-11T23:22:25.018Z,2.30
2017-12-11T23:24:52.569Z,2.30
2017-12-11T23:27:20.141Z,2.30
2017-12-11T23:29:47.691Z,2.30
2017-12-11T23:32:15.441Z,2.20
2017-12-11T23:34:43.051Z,2.20
2017-12-11T23:37:10.630Z,2.10
2017-12-11T23:39:38.281Z,2.10
2017-12-11T23:42:05.946Z,2.10
2017-12-11T23:44:34.834Z,2.10
2017-12-11T23:47:02.856Z,2.10
2017-12-11T23:49:30.731Z,2.10
2017-12-11T23:51:58.542Z,2.00
2017-12-11T23:54:34.406Z,2.00
2017-12-11T23:57:02.201Z,2.00
2017-12-11T23:59:29.810Z,2.00
